createdAt,value
2022-10-19T00:02:28.204Z,100.00
2022-10-19T00:05:29.819Z,100.00
2022-10-19T00:08:31.458Z,100.00
2022-10-19T00:11:34.398Z,100.00
2022-10-19T00:14:35.953Z,100.00
2022-10-19T00:17:37.634Z,100.00
2022-10-19T00:20:39.211Z,100.00
2022-10-19T00:23:41.216Z,100.00
2022-10-19T00:26:43.161Z,100.00
2022-10-19T00:29:44.719Z,100.00
2022-10-19T00:32:46.387Z,100.00
2022-10-19T00:35:52.580Z,100.00
2022-10-19T00:38:56.068Z,100.00
2022-10-19T00:41:57.785Z,100.00
2022-10-19T00:45:05.360Z,100.00
2022-10-19T00:48:08.514Z,100.00
2022-10-19T00:51:10.199Z,100.00
2022-10-19T00:54:12.277Z,100.00
2022-10-19T00:57:14.479Z,100.00
2022-10-19T01:00:16.180Z,100.00
2022-10-19T01:03:18.253Z,100.00
2022-10-19T01:06:20.619Z,100.00
2022-10-19T01:09:22.484Z,100.00
2022-10-19T01:12:45.263Z,100.00
2022-10-19T01:16:03.048Z,100.00
2022-10-19T01:19:19.657Z,100.00
2022-10-19T01:22:21.218Z,100.00
2022-10-19T01:25:31.754Z,100.00
2022-10-19T01:28:52.309Z,100.00
2022-10-19T01:32:02.686Z,100.00
2022-10-19T01:35:24.681Z,100.00
2022-10-19T01:38:39.090Z,100.00
2022-10-19T01:41:57.939Z,100.00
2022-10-19T01:45:07.108Z,100.00
2022-10-19T01:48:32.106Z,100.00
2022-10-19T01:51:38.665Z,100.00
2022-10-19T01:54:44.946Z,100.00
2022-10-19T01:57:48.136Z,100.00
2022-10-19T02:00:53.211Z,100.00
2022-10-19T02:03:56.055Z,100.00
2022-10-19T02:06:58.865Z,100.00
2022-10-19T02:10:01.138Z,100.00
2022-10-19T02:13:03.529Z,100.00
2022-10-19T02:16:13.636Z,100.00
2022-10-19T02:19:16.867Z,100.00
2022-10-19T02:22:18.492Z,100.00
2022-10-19T02:25:20.530Z,100.00
2022-10-19T02:31:26.370Z,100.00
2022-10-19T02:34:28.270Z,100.00
2022-10-19T02:37:29.997Z,100.00
2022-10-19T02:40:37.997Z,100.00
2022-10-19T02:43:42.803Z,100.00
2022-10-19T02:46:49.814Z,100.00
2022-10-19T02:49:52.189Z,100.00
2022-10-19T02:52:53.782Z,100.00
2022-10-19T02:55:55.432Z,100.00
2022-10-19T02:58:57.067Z,100.00
2022-10-19T03:01:58.728Z,100.00
2022-10-19T03:05:00.417Z,100.00
2022-10-19T03:08:02.041Z,100.00
2022-10-19T03:11:03.860Z,100.00
2022-10-19T03:14:05.458Z,100.00
2022-10-19T03:17:07.231Z,100.00
2022-10-19T03:20:10.222Z,100.00
2022-10-19T03:23:11.787Z,100.00
2022-10-19T03:26:15.641Z,100.00
2022-10-19T03:29:17.407Z,100.00
2022-10-19T03:32:19.072Z,100.00
2022-10-19T03:35:20.667Z,100.00
2022-10-19T03:38:22.238Z,100.00
2022-10-19T03:41:26.270Z,100.00
2022-10-19T03:44:27.841Z,100.00
2022-10-19T03:47:29.486Z,100.00
2022-10-19T03:50:31.166Z,100.00
2022-10-19T03:53:33.442Z,100.00
2022-10-19T03:56:36.363Z,100.00
2022-10-19T03:59:38.194Z,100.00
2022-10-19T04:02:39.792Z,100.00
2022-10-19T04:05:41.433Z,100.00
2022-10-19T04:08:43.722Z,100.00
2022-10-19T04:11:45.476Z,100.00
2022-10-19T04:14:57.017Z,100.00
2022-10-19T04:17:59.129Z,100.00
2022-10-19T04:21:03.267Z,100.00
2022-10-19T04:24:09.334Z,100.00
2022-10-19T04:27:10.967Z,100.00
2022-10-19T04:30:12.602Z,100.00
2022-10-19T04:33:14.249Z,100.00
2022-10-19T04:36:16.176Z,100.00
2022-10-19T04:39:20.233Z,100.00
2022-10-19T04:42:21.895Z,100.00
2022-10-19T04:45:23.599Z,100.00
2022-10-19T04:48:25.160Z,100.00
2022-10-19T04:51:27.750Z,100.00
2022-10-19T04:54:29.329Z,100.00
2022-10-19T04:57:31.278Z,100.00
2022-10-19T05:00:33.350Z,100.00
2022-10-19T05:03:34.994Z,100.00
2022-10-19T05:06:36.645Z,100.00
2022-10-19T05:09:40.483Z,100.00
2022-10-19T05:12:42.123Z,100.00
2022-10-19T05:15:43.837Z,100.00
2022-10-19T05:18:50.275Z,100.00
2022-10-19T05:21:51.776Z,100.00
2022-10-19T05:24:55.934Z,100.00
2022-10-19T05:27:59.739Z,100.00
2022-10-19T05:31:06.705Z,100.00
2022-10-19T05:37:16.473Z,100.00
2022-10-19T05:40:18.041Z,100.00
2022-10-19T05:43:19.572Z,100.00
2022-10-19T05:46:21.317Z,100.00
2022-10-19T05:49:23.283Z,100.00
2022-10-19T05:52:24.877Z,100.00
2022-10-19T05:55:26.482Z,100.00
2022-10-19T05:58:28.049Z,100.00
2022-10-19T06:01:30.969Z,100.00
2022-10-19T06:04:33.743Z,100.00
2022-10-19T06:07:35.741Z,100.00
2022-10-19T06:10:37.505Z,100.00
2022-10-19T06:13:40.847Z,100.00
2022-10-19T06:16:42.841Z,100.00
2022-10-19T06:19:44.400Z,100.00
2022-10-19T06:22:46.005Z,100.00
2022-10-19T06:25:47.646Z,100.00
2022-10-19T06:28:50.449Z,100.00
2022-10-19T06:31:54.137Z,100.00
2022-10-19T06:34:56.652Z,100.00
2022-10-19T06:37:58.378Z,100.00
2022-10-19T06:41:00.730Z,100.00
2022-10-19T06:44:02.462Z,100.00
2022-10-19T06:47:04.153Z,100.00
2022-10-19T06:50:07.002Z,100.00
2022-10-19T06:53:08.678Z,100.00
2022-10-19T06:56:10.691Z,100.00
2022-10-19T06:59:14.728Z,100.00
2022-10-19T07:02:16.839Z,100.00
2022-10-19T07:05:18.465Z,100.00
2022-10-19T07:08:20.106Z,100.00
2022-10-19T07:11:22.687Z,100.00
2022-10-19T07:14:24.834Z,100.00
2022-10-19T07:17:26.544Z,100.00
2022-10-19T07:20:28.128Z,100.00
2022-10-19T07:23:31.571Z,100.00
2022-10-19T07:26:33.806Z,100.00
2022-10-19T07:29:35.541Z,100.00
2022-10-19T07:32:37.160Z,100.00
2022-10-19T07:35:38.806Z,100.00
2022-10-19T07:38:41.042Z,100.00
2022-10-19T07:41:43.599Z,100.00
2022-10-19T07:44:45.430Z,100.00
2022-10-19T07:47:46.978Z,100.00
2022-10-19T07:50:49.019Z,100.00
2022-10-19T07:53:50.935Z,100.00
2022-10-19T07:56:52.506Z,100.00
2022-10-19T07:59:54.062Z,100.00
2022-10-19T08:03:28.075Z,100.00
2022-10-19T08:06:21.438Z,100.00
2022-10-19T08:09:47.365Z,100.00
2022-10-19T08:12:44.610Z,100.00
2022-10-19T08:15:46.355Z,100.00
2022-10-19T08:18:48.014Z,100.00
2022-10-19T08:21:49.905Z,100.00
2022-10-19T08:24:51.828Z,100.00
2022-10-19T08:27:53.389Z,100.00
2022-10-19T08:30:58.866Z,100.00
2022-10-19T08:34:00.491Z,100.00
2022-10-19T08:37:10.194Z,100.00
2022-10-19T08:40:25.378Z,100.00
2022-10-19T08:43:38.604Z,100.00
2022-10-19T08:47:13.872Z,100.00
2022-10-19T08:50:25.871Z,100.00
2022-10-19T08:53:38.826Z,100.00
2022-10-19T08:56:55.176Z,100.00
2022-10-19T09:00:15.713Z,100.00
2022-10-19T09:03:37.863Z,100.00
2022-10-19T09:07:10.265Z,100.00
2022-10-19T09:10:14.912Z,100.00
2022-10-19T09:13:41.286Z,100.00
2022-10-19T09:16:48.812Z,100.00
2022-10-19T09:19:50.650Z,100.00
2022-10-19T09:23:01.941Z,100.00
2022-10-19T09:26:05.830Z,100.00
2022-10-19T09:29:21.581Z,100.00
2022-10-19T09:32:28.497Z,100.00
2022-10-19T09:35:44.421Z,100.00
2022-10-19T09:38:46.105Z,100.00
2022-10-19T09:41:52.106Z,100.00
2022-10-19T09:44:55.075Z,100.00
2022-10-19T09:48:04.598Z,100.00
2022-10-19T09:51:14.645Z,100.00
2022-10-19T09:54:32.359Z,100.00
2022-10-19T09:57:45.927Z,100.00
2022-10-19T10:00:54.933Z,100.00
2022-10-19T10:04:08.758Z,100.00
2022-10-19T10:07:16.923Z,100.00
2022-10-19T10:10:18.581Z,100.00
2022-10-19T10:13:23.885Z,100.00
2022-10-19T10:16:30.498Z,100.00
2022-10-19T10:19:33.738Z,100.00
2022-10-19T10:22:37.157Z,100.00
2022-10-19T10:25:44.360Z,100.00
2022-10-19T10:28:51.416Z,100.00
2022-10-19T10:32:04.326Z,100.00
2022-10-19T10:35:31.690Z,100.00
2022-10-19T10:38:45.136Z,100.00
2022-10-19T10:41:49.003Z,100.00
2022-10-19T10:44:53.167Z,100.00
2022-10-19T10:47:55.179Z,99.54
2022-10-19T10:50:58.199Z,95.01
2022-10-19T10:54:32.824Z,95.95
2022-10-19T10:57:40.660Z,91.92
2022-10-19T11:00:43.456Z,92.20
2022-10-19T11:03:50.925Z,93.85
2022-10-19T11:06:59.225Z,95.51
2022-10-19T11:10:09.910Z,94.07
2022-10-19T11:13:37.948Z,94.64
2022-10-19T11:16:45.891Z,90.71
2022-10-19T11:19:50.254Z,91.76
2022-10-19T11:23:13.690Z,89.81
2022-10-19T11:26:27.452Z,88.41
2022-10-19T11:30:01.648Z,89.33
2022-10-19T11:33:20.430Z,85.23
2022-10-19T11:37:07.253Z,86.84
2022-10-19T11:41:19.031Z,89.38
2022-10-19T11:44:35.170Z,89.29
2022-10-19T11:47:59.737Z,86.28
2022-10-19T11:51:40.652Z,87.01
2022-10-19T11:55:04.228Z,86.12
2022-10-19T11:58:43.022Z,85.19
2022-10-19T12:02:03.257Z,82.12
2022-10-19T12:05:13.558Z,83.99
2022-10-19T12:08:52.527Z,84.39
2022-10-19T12:12:23.824Z,79.43
2022-10-19T12:15:33.593Z,80.61
2022-10-19T12:19:04.225Z,80.50
2022-10-19T12:22:12.617Z,80.31
2022-10-19T12:25:16.702Z,83.69
2022-10-19T12:28:24.690Z,83.34
2022-10-19T12:31:28.354Z,80.35
2022-10-19T12:34:40.672Z,81.77
2022-10-19T12:37:53.641Z,83.11
2022-10-19T12:41:06.156Z,81.87
2022-10-19T12:44:22.137Z,84.20
2022-10-19T12:47:25.071Z,86.11
2022-10-19T12:50:48.811Z,82.11
2022-10-19T12:53:50.594Z,80.77
2022-10-19T12:56:54.592Z,80.98
2022-10-19T13:00:20.717Z,78.16
2022-10-19T13:03:25.186Z,76.06
2022-10-19T13:06:35.584Z,72.02
2022-10-19T13:09:42.626Z,74.39
2022-10-19T13:12:47.102Z,76.12
2022-10-19T13:15:51.439Z,74.72
2022-10-19T13:19:14.133Z,75.65
2022-10-19T13:22:27.899Z,78.27
2022-10-19T13:25:34.097Z,78.02
2022-10-19T13:28:37.600Z,78.31
2022-10-19T13:31:39.654Z,78.24
2022-10-19T13:34:41.379Z,77.83
2022-10-19T13:37:43.712Z,77.39
2022-10-19T13:44:59.624Z,76.55
2022-10-19T13:48:18.795Z,77.85
2022-10-19T13:51:42.174Z,75.87
2022-10-19T13:55:17.838Z,74.69
2022-10-19T13:58:40.342Z,75.11
2022-10-19T14:01:59.792Z,76.43
2022-10-19T14:05:35.855Z,77.79
2022-10-19T14:08:55.954Z,76.86
2022-10-19T14:12:31.196Z,75.47
2022-10-19T14:15:34.909Z,76.50
2022-10-19T14:18:37.546Z,74.51
2022-10-19T14:21:39.211Z,72.92
2022-10-19T14:24:40.817Z,70.95
2022-10-19T14:27:43.001Z,68.64
2022-10-19T14:30:44.743Z,67.90
2022-10-19T14:33:50.138Z,65.32
2022-10-19T14:36:51.894Z,64.14
2022-10-19T14:40:04.235Z,64.07
2022-10-19T14:43:26.781Z,64.51
2022-10-19T14:46:33.839Z,63.99
2022-10-19T14:49:35.601Z,63.74
2022-10-19T14:52:39.709Z,64.51
2022-10-19T14:55:42.200Z,67.00
2022-10-19T14:59:29.148Z,68.91
2022-10-19T15:02:44.738Z,66.99
2022-10-19T15:05:49.250Z,67.92
2022-10-19T15:08:57.195Z,68.88
2022-10-19T15:12:10.535Z,70.55
2022-10-19T15:15:22.178Z,72.81
2022-10-19T15:18:47.540Z,73.65
2022-10-19T15:21:47.824Z,75.35
2022-10-19T15:25:07.825Z,75.95
2022-10-19T15:28:20.946Z,75.86
2022-10-19T15:31:28.535Z,75.54
2022-10-19T15:34:30.739Z,74.57
2022-10-19T15:37:32.400Z,75.23
2022-10-19T15:40:40.683Z,75.17
2022-10-19T15:43:58.868Z,76.44
2022-10-19T15:47:12.339Z,77.30
2022-10-19T15:50:32.195Z,78.38
2022-10-19T15:53:33.873Z,78.48
2022-10-19T15:56:39.024Z,78.47
2022-10-19T15:59:40.668Z,78.21
2022-10-19T16:02:42.442Z,79.15
2022-10-19T16:05:44.156Z,79.81
2022-10-19T16:08:46.582Z,80.81
2022-10-19T16:11:48.721Z,80.83
2022-10-19T16:14:50.679Z,80.03
2022-10-19T16:17:58.782Z,81.99
2022-10-19T16:21:00.844Z,83.65
2022-10-19T16:24:02.879Z,83.32
2022-10-19T16:27:04.957Z,82.90
2022-10-19T16:30:07.462Z,82.89
2022-10-19T16:33:09.065Z,84.09
2022-10-19T16:36:10.994Z,84.17
2022-10-19T16:39:12.621Z,84.25
2022-10-19T16:42:14.516Z,85.24
2022-10-19T16:45:16.982Z,85.68
2022-10-19T16:48:23.205Z,85.73
2022-10-19T16:51:30.142Z,85.44
2022-10-19T16:54:32.866Z,85.32
2022-10-19T16:57:34.537Z,85.46
2022-10-19T17:00:48.313Z,85.22
2022-10-19T17:03:55.024Z,85.51
2022-10-19T17:06:57.687Z,85.83
2022-10-19T17:09:59.430Z,86.33
2022-10-19T17:13:01.154Z,86.42
2022-10-19T17:16:04.032Z,86.53
2022-10-19T17:19:07.093Z,86.48
2022-10-19T17:22:08.708Z,86.49
2022-10-19T17:25:10.301Z,86.79
2022-10-19T17:28:11.908Z,86.98
2022-10-19T17:31:14.118Z,87.33
2022-10-19T17:34:16.124Z,87.79
2022-10-19T17:37:17.732Z,88.09
2022-10-19T17:40:19.336Z,87.81
2022-10-19T17:43:20.944Z,88.01
2022-10-19T17:46:28.943Z,88.08
2022-10-19T17:49:30.567Z,88.87
2022-10-19T17:52:32.187Z,89.80
2022-10-19T17:55:36.807Z,89.89
2022-10-19T17:58:39.921Z,89.95
2022-10-19T18:01:42.201Z,89.87
2022-10-19T18:04:43.766Z,90.83
2022-10-19T18:07:45.606Z,91.31
2022-10-19T18:10:47.200Z,91.41
2022-10-19T18:13:49.643Z,91.88
2022-10-19T18:16:52.081Z,92.56
2022-10-19T18:19:53.813Z,93.03
2022-10-19T18:22:55.436Z,92.94
2022-10-19T18:26:04.886Z,93.51
2022-10-19T18:29:16.743Z,93.44
2022-10-19T18:32:18.330Z,92.87
2022-10-19T18:35:19.950Z,92.35
2022-10-19T18:38:23.671Z,92.34
2022-10-19T18:41:26.374Z,92.94
2022-10-19T18:44:29.558Z,93.67
2022-10-19T18:47:34.136Z,93.77
2022-10-19T18:50:35.721Z,94.40
2022-10-19T18:53:37.554Z,94.23
2022-10-19T18:56:39.178Z,94.57
2022-10-19T18:59:40.789Z,94.49
2022-10-19T19:02:47.059Z,93.94
2022-10-19T19:05:49.080Z,94.17
2022-10-19T19:08:51.468Z,94.63
2022-10-19T19:11:54.423Z,95.02
2022-10-19T19:14:56.026Z,95.24
2022-10-19T19:17:57.632Z,96.20
2022-10-19T19:20:59.313Z,95.78
2022-10-19T19:24:02.729Z,96.43
2022-10-19T19:27:04.348Z,95.91
2022-10-19T19:30:06.548Z,95.96
2022-10-19T19:33:08.277Z,96.63
2022-10-19T19:36:11.692Z,96.85
2022-10-19T19:39:19.426Z,97.17
2022-10-19T19:42:23.310Z,97.50
2022-10-19T19:45:28.617Z,98.60
2022-10-19T19:48:30.463Z,98.95
2022-10-19T19:51:32.629Z,99.72
2022-10-19T19:54:34.252Z,99.80
2022-10-19T19:57:36.101Z,98.96
2022-10-19T20:00:39.503Z,99.87
2022-10-19T20:03:42.147Z,100.00
2022-10-19T20:06:44.619Z,100.00
2022-10-19T20:09:46.330Z,100.00
2022-10-19T20:12:48.466Z,100.00
2022-10-19T20:15:50.176Z,100.00
2022-10-19T20:18:55.588Z,100.00
2022-10-19T20:21:58.229Z,100.00
2022-10-19T20:24:59.821Z,100.00
2022-10-19T20:28:01.472Z,100.00
2022-10-19T20:31:06.130Z,100.00
2022-10-19T20:34:14.071Z,100.00
2022-10-19T20:37:15.947Z,100.00
2022-10-19T20:40:17.956Z,100.00
2022-10-19T20:43:19.573Z,100.00
2022-10-19T20:46:27.786Z,100.00
2022-10-19T20:49:29.375Z,100.00
2022-10-19T20:52:30.959Z,100.00
2022-10-19T20:55:33.359Z,100.00
2022-10-19T20:58:35.490Z,100.00
2022-10-19T21:01:38.665Z,100.00
2022-10-19T21:04:40.298Z,100.00
2022-10-19T21:07:41.898Z,100.00
2022-10-19T21:10:43.541Z,100.00
2022-10-19T21:13:46.057Z,100.00
2022-10-19T21:16:47.863Z,100.00
2022-10-19T21:19:49.603Z,100.00
2022-10-19T21:22:51.240Z,100.00
2022-10-19T21:25:54.603Z,100.00
2022-10-19T21:28:56.575Z,100.00
2022-10-19T21:31:58.245Z,100.00
2022-10-19T21:34:59.893Z,100.00
2022-10-19T21:38:01.506Z,100.00
2022-10-19T21:41:08.799Z,100.00
2022-10-19T21:44:10.790Z,100.00
2022-10-19T21:47:12.353Z,100.00
2022-10-19T21:50:14.039Z,100.00
2022-10-19T21:53:19.976Z,100.00
2022-10-19T21:56:21.747Z,100.00
2022-10-19T21:59:23.739Z,100.00
2022-10-19T22:02:25.321Z,100.00
2022-10-19T22:05:26.932Z,100.00
2022-10-19T22:08:30.161Z,100.00
2022-10-19T22:11:31.955Z,100.00
2022-10-19T22:14:33.581Z,100.00
2022-10-19T22:17:35.240Z,100.00
2022-10-19T22:20:38.720Z,100.00
2022-10-19T22:23:41.065Z,100.00
2022-10-19T22:26:47.371Z,100.00
2022-10-19T22:29:50.757Z,100.00
2022-10-19T22:32:52.442Z,100.00
2022-10-19T22:35:59.392Z,100.00
2022-10-19T22:39:01.188Z,100.00
2022-10-19T22:42:05.456Z,100.00
2022-10-19T22:45:07.672Z,100.00
2022-10-19T22:48:09.321Z,100.00
2022-10-19T22:51:10.888Z,100.00
2022-10-19T22:54:12.922Z,100.00
2022-10-19T22:57:14.535Z,100.00
2022-10-19T23:00:16.218Z,100.00
2022-10-19T23:03:17.756Z,100.00
2022-10-19T23:06:19.332Z,100.00
2022-10-19T23:09:20.994Z,100.00
2022-10-19T23:12:22.633Z,100.00
2022-10-19T23:15:24.210Z,100.00
2022-10-19T23:18:25.881Z,100.00
2022-10-19T23:21:27.524Z,100.00
2022-10-19T23:24:29.124Z,100.00
2022-10-19T23:27:30.774Z,100.00
2022-10-19T23:30:32.350Z,100.00
2022-10-19T23:33:34.171Z,100.00
2022-10-19T23:36:35.801Z,100.00
2022-10-19T23:39:37.409Z,100.00
2022-10-19T23:42:39.036Z,100.00
2022-10-19T23:45:40.648Z,100.00
2022-10-19T23:48:42.366Z,100.00
2022-10-19T23:51:44.045Z,100.00
2022-10-19T23:54:45.636Z,100.00
2022-10-19T23:57:47.229Z,100.00
